Time;durP1;ratioP1;P1;durP2;ratioP2;P2;SDS_P1;SDS_P2;PMS_P1;PMS_P2;Temp;Humidity;BMP_temperature;BMP_pressure;BME280_temperature;BME280_humidity;BME280_pressure;Samples;Min_cycle;Max_cycle;Signal;HPM_P1;HPM_P2
2024/02/17 00:00:53;;;;;;;7.00;4.13;;;23.50;99.90;;;;;;5019573;28;20017;-50
2024/02/17 00:03:25;;;;;;;8.43;4.10;;;23.50;99.90;;;;;;5006807;28;20046;-50
2024/02/17 00:05:51;;;;;;;4.90;3.95;;;23.50;99.90;;;;;;5014431;28;20022;-50
2024/02/17 00:08:17;;;;;;;6.28;4.03;;;23.50;99.90;;;;;;5014218;28;20022;-50
2024/02/17 00:10:43;;;;;;;5.47;3.75;;;23.50;99.90;;;;;;5012820;28;20026;-50
2024/02/17 00:13:09;;;;;;;5.63;3.92;;;23.40;99.90;;;;;;5011162;28;20034;-50
2024/02/17 00:15:35;;;;;;;7.18;4.70;;;23.40;99.90;;;;;;5015092;28;20067;-50
2024/02/17 00:18:05;;;;;;;7.00;4.15;;;23.40;99.90;;;;;;5013671;28;20029;-50
2024/02/17 00:20:31;;;;;;;6.20;4.10;;;23.40;99.90;;;;;;5013835;28;20478;-51
2024/02/17 00:22:56;;;;;;;5.93;4.00;;;23.40;99.90;;;;;;5030857;28;20071;-51
2024/02/17 00:25:22;;;;;;;6.15;4.07;;;23.40;99.90;;;;;;5025024;28;20030;-50
2024/02/17 00:27:48;;;;;;;5.93;3.95;;;23.40;99.90;;;;;;5021367;28;20017;-51
2024/02/17 00:30:15;;;;;;;9.40;4.00;;;23.40;99.90;;;;;;5014154;28;20049;-52
2024/02/17 00:32:41;;;;;;;;;;;23.40;99.90;;;;;;5007084;28;20018;-51
2024/02/17 00:35:10;;;;;;;5.53;3.53;;;23.40;99.90;;;;;;5007691;28;19906;-49
2024/02/17 00:37:36;;;;;;;6.15;3.83;;;23.40;99.90;;;;;;5005387;28;20037;-50
2024/02/17 00:40:03;;;;;;;5.20;3.55;;;23.40;99.90;;;;;;4999524;28;20034;-50
2024/02/17 00:42:28;;;;;;;6.97;4.00;;;23.40;99.90;;;;;;4999524;28;20081;-50
2024/02/17 00:44:54;;;;;;;4.97;3.55;;;23.40;99.90;;;;;;5025406;28;20137;-49
2024/02/17 00:47:20;;;;;;;5.28;3.75;;;23.40;99.90;;;;;;5013541;28;20359;-50
2024/02/17 00:49:46;;;;;;;4.88;3.15;;;23.30;99.90;;;;;;5013553;28;20026;-51
2024/02/17 00:52:12;;;;;;;5.95;3.30;;;23.40;99.90;;;;;;5013534;28;20423;-50
2024/02/17 00:54:37;;;;;;;4.70;3.85;;;23.30;99.90;;;;;;5013559;28;20028;-49
2024/02/17 00:57:03;;;;;;;6.35;3.47;;;23.30;99.90;;;;;;5028778;28;20489;-49
2024/02/17 00:59:29;;;;;;;5.43;3.75;;;23.30;99.90;;;;;;5008084;28;20108;-49
2024/02/17 01:01:56;;;;;;;5.25;3.40;;;23.30;99.90;;;;;;5012929;28;20054;-50
2024/02/17 01:04:22;;;;;;;4.50;3.28;;;23.30;99.90;;;;;;5012861;28;20474;-49
2024/02/17 01:06:48;;;;;;;5.32;3.30;;;23.30;99.90;;;;;;5012967;28;20068;-49
2024/02/17 01:09:16;;;;;;;4.45;3.17;;;23.30;99.90;;;;;;5011804;28;20516;-48
2024/02/17 01:11:42;;;;;;;5.05;3.05;;;23.30;99.90;;;;;;5011809;28;20060;-48
2024/02/17 01:14:08;;;;;;;4.68;3.17;;;23.30;99.90;;;;;;5011692;28;20037;-49
2024/02/17 01:16:34;;;;;;;4.75;3.03;;;23.30;99.90;;;;;;5010677;28;20045;-49
2024/02/17 01:19:00;;;;;;;5.75;3.05;;;23.20;99.90;;;;;;4998428;28;20034;-48
2024/02/17 01:21:26;;;;;;;4.32;3.17;;;23.20;99.90;;;;;;5004577;28;20065;-52
2024/02/17 01:23:53;;;;;;;6.45;3.45;;;23.30;99.90;;;;;;5016806;28;20029;-52
2024/02/17 01:26:18;;;;;;;4.90;2.80;;;23.20;99.90;;;;;;5015839;28;20109;-53
2024/02/17 01:28:44;;;;;;;8.80;3.30;;;23.20;99.90;;;;;;5025225;28;20133;-51
2024/02/17 01:31:10;;;;;;;5.28;2.70;;;23.20;99.90;;;;;;5028066;28;20037;-51
2024/02/17 01:33:36;;;;;;;4.45;2.97;;;23.20;99.90;;;;;;5021212;28;20030;-51
2024/02/17 01:36:02;;;;;;;4.57;2.70;;;23.20;99.90;;;;;;5006180;28;20090;-53
2024/02/17 01:38:27;;;;;;;5.80;3.00;;;23.20;99.90;;;;;;5008154;28;20026;-52
2024/02/17 01:40:54;;;;;;;5.43;3.25;;;23.20;99.90;;;;;;5000114;28;20034;-52
2024/02/17 01:43:20;;;;;;;5.07;3.22;;;23.20;99.90;;;;;;4998936;28;20060;-52
2024/02/17 01:45:47;;;;;;;4.13;2.95;;;23.20;99.90;;;;;;5000826;28;20108;-52
2024/02/17 01:48:14;;;;;;;5.35;2.70;;;23.20;99.90;;;;;;5009032;28;20594;-51
2024/02/17 01:50:40;;;;;;;4.28;2.90;;;23.20;99.90;;;;;;5000560;28;20498;-52
2024/02/17 01:53:07;;;;;;;5.95;3.15;;;23.20;99.90;;;;;;5024129;28;20370;-51
2024/02/17 01:55:33;;;;;;;3.17;2.67;;;23.20;99.90;;;;;;5026296;28;20025;-51
2024/02/17 01:57:59;;;;;;;6.88;2.95;;;23.20;99.90;;;;;;5018553;28;20482;-52
2024/02/17 02:00:26;;;;;;;4.30;2.65;;;23.10;99.90;;;;;;4995818;28;20026;-52
2024/02/17 02:02:53;;;;;;;6.32;2.78;;;23.10;99.90;;;;;;4998215;28;20112;-51
2024/02/17 02:05:21;;;;;;;4.57;2.80;;;23.10;99.90;;;;;;5026623;28;20041;-51
2024/02/17 02:07:47;;;;;;;7.10;2.72;;;23.10;99.90;;;;;;5028222;28;20033;-50
2024/02/17 02:10:13;;;;;;;6.32;2.50;;;23.10;99.90;;;;;;5024177;28;21291;-51
2024/02/17 02:12:39;;;;;;;4.03;2.67;;;23.10;99.90;;;;;;5026981;28;20502;-51
2024/02/17 02:15:10;;;;;;;5.82;2.50;;;23.10;99.90;;;;;;5011583;28;20475;-50
2024/02/17 02:17:37;;;;;;;3.88;2.15;;;23.10;99.90;;;;;;5010395;28;20473;-50
2024/02/17 02:20:04;;;;;;;5.18;2.63;;;23.10;99.90;;;;;;5026073;28;20039;-49
2024/02/17 02:22:30;;;;;;;4.63;2.60;;;23.10;99.90;;;;;;5022631;28;20022;-49
2024/02/17 02:24:58;;;;;;;8.05;2.90;;;23.10;99.90;;;;;;5016255;28;20421;-49
2024/02/17 02:27:25;;;;;;;5.78;2.38;;;23.10;99.90;;;;;;5027779;28;20026;-52
2024/02/17 02:29:52;;;;;;;4.63;1.98;;;23.10;99.90;;;;;;5001084;28;20034;-53
2024/02/17 02:32:19;;;;;;;3.58;1.95;;;23.10;99.90;;;;;;5000078;28;20026;-50
2024/02/17 02:34:47;;;;;;;4.88;2.47;;;23.10;99.90;;;;;;5029281;28;20036;-50
2024/02/17 02:37:14;;;;;;;5.32;2.22;;;23.10;99.90;;;;;;5021752;28;20019;-50
2024/02/17 02:39:40;;;;;;;3.95;2.20;;;23.10;99.90;;;;;;5026874;28;20511;-51
2024/02/17 02:42:06;;;;;;;4.90;2.20;;;23.10;99.90;;;;;;5015448;28;20018;-49
2024/02/17 02:44:32;;;;;;;3.78;2.05;;;23.10;99.90;;;;;;5017426;28;20025;-49
2024/02/17 02:46:58;;;;;;;2.78;1.90;;;23.10;99.90;;;;;;5000780;28;20183;-49
2024/02/17 02:49:23;;;;;;;3.60;2.30;;;23.10;99.90;;;;;;4992213;28;20068;-52
2024/02/17 02:51:49;;;;;;;4.50;2.00;;;23.10;99.90;;;;;;5018349;28;20017;-52
2024/02/17 02:54:17;;;;;;;5.20;2.15;;;23.00;99.90;;;;;;5024521;28;20030;-52
2024/02/17 02:56:43;;;;;;;3.53;1.88;;;23.10;99.90;;;;;;5008110;28;20026;-53
2024/02/17 02:59:08;;;;;;;4.00;2.50;;;23.10;99.90;;;;;;5007181;28;20058;-53
2024/02/17 03:01:34;;;;;;;3.13;2.33;;;23.00;99.90;;;;;;5040337;22;20624;-44
2024/02/17 03:04:00;;;;;;;3.75;2.28;;;23.00;99.90;;;;;;5030624;28;20053;-43
2024/02/17 03:06:27;;;;;;;4.50;2.67;;;23.00;99.90;;;;;;5030822;28;20036;-43
2024/02/17 03:08:52;;;;;;;4.85;2.22;;;23.00;99.90;;;;;;5031150;28;20034;-44
2024/02/17 03:11:18;;;;;;;3.80;2.20;;;22.90;99.90;;;;;;5030869;28;20059;-44
2024/02/17 03:13:44;;;;;;;2.70;1.75;;;22.90;99.90;;;;;;5031441;28;20017;-43
2024/02/17 03:16:10;;;;;;;4.40;2.25;;;22.90;99.90;;;;;;5030721;28;20030;-43
2024/02/17 03:18:35;;;;;;;2.47;1.95;;;22.90;99.90;;;;;;5030882;28;20393;-43
2024/02/17 03:21:01;;;;;;;4.25;1.88;;;22.90;99.90;;;;;;5014557;28;20106;-45
2024/02/17 03:23:27;;;;;;;3.63;1.85;;;22.90;99.90;;;;;;5015279;28;20030;-45
2024/02/17 03:25:53;;;;;;;4.68;2.05;;;22.80;99.90;;;;;;5013349;28;20037;-43
2024/02/17 03:28:18;;;;;;;4.07;1.80;;;22.80;99.90;;;;;;5011380;28;20091;-43
2024/02/17 03:30:44;;;;;;;3.97;2.25;;;22.80;99.90;;;;;;5008729;28;20359;-44
2024/02/17 03:33:10;;;;;;;2.38;1.65;;;22.80;99.90;;;;;;5021518;28;20088;-43
2024/02/17 03:35:37;;;;;;;4.57;2.25;;;22.80;99.90;;;;;;5027084;28;20079;-44
2024/02/17 03:38:03;;;;;;;4.88;1.88;;;22.80;99.90;;;;;;5027906;28;20019;-43
2024/02/17 03:40:29;;;;;;;3.20;1.95;;;22.80;99.90;;;;;;5027851;28;20398;-43
2024/02/17 03:42:54;;;;;;;4.05;1.92;;;22.70;99.90;;;;;;5031503;28;20032;-43
2024/02/17 03:45:20;;;;;;;6.47;1.85;;;22.70;99.90;;;;;;5031450;28;20028;-44
2024/02/17 03:47:46;;;;;;;4.78;2.13;;;22.70;99.90;;;;;;5031094;28;20017;-43
2024/02/17 03:50:12;;;;;;;3.22;1.83;;;22.70;99.90;;;;;;5033800;28;20030;-43
2024/02/17 03:52:37;;;;;;;2.60;1.85;;;22.70;99.90;;;;;;5034109;28;20489;-43
2024/02/17 03:55:03;;;;;;;4.00;1.80;;;22.70;99.90;;;;;;5033521;28;20026;-44
2024/02/17 03:57:29;;;;;;;2.53;1.90;;;22.70;99.90;;;;;;5034223;28;20101;-44
2024/02/17 03:59:55;;;;;;;3.10;1.95;;;22.60;99.90;;;;;;5034025;28;20093;-44
2024/02/17 04:02:21;;;;;;;4.00;1.75;;;22.60;99.90;;;;;;5034736;28;20068;-43
2024/02/17 04:04:47;;;;;;;4.18;1.90;;;22.60;99.90;;;;;;5034051;28;20032;-44
2024/02/17 04:07:12;;;;;;;5.15;2.22;;;22.60;99.90;;;;;;5034459;28;20018;-44
2024/02/17 04:09:38;;;;;;;2.50;1.60;;;22.60;99.90;;;;;;5033809;28;20125;-43
2024/02/17 04:12:04;;;;;;;2.47;1.70;;;22.60;99.90;;;;;;5034200;28;20017;-44
2024/02/17 04:14:30;;;;;;;2.72;1.58;;;22.60;99.90;;;;;;5034002;28;20108;-43
2024/02/17 04:16:56;;;;;;;3.60;1.98;;;22.60;99.90;;;;;;5033736;28;20037;-43
2024/02/17 04:19:22;;;;;;;4.60;2.03;;;22.60;99.90;;;;;;5033882;28;20061;-45
2024/02/17 04:21:47;;;;;;;2.70;1.90;;;22.60;99.90;;;;;;5033832;28;20113;-44
2024/02/17 04:24:13;;;;;;;4.65;1.75;;;22.50;99.90;;;;;;5034097;28;20031;-44
2024/02/17 04:26:39;;;;;;;2.70;1.77;;;22.50;99.90;;;;;;5033626;28;20083;-44
2024/02/17 04:29:05;;;;;;;5.55;2.55;;;22.50;99.90;;;;;;5032543;28;20457;-43
2024/02/17 04:31:31;;;;;;;2.72;1.75;;;22.50;99.90;;;;;;5032596;28;20079;-44
2024/02/17 04:33:57;;;;;;;4.78;2.17;;;22.50;99.90;;;;;;5033490;28;20057;-43
2024/02/17 04:36:23;;;;;;;4.28;1.80;;;22.50;99.90;;;;;;5033633;28;20078;-44
2024/02/17 04:38:48;;;;;;;3.13;1.70;;;22.50;99.90;;;;;;5033215;28;20105;-43
2024/02/17 04:41:14;;;;;;;7.55;1.88;;;22.50;99.90;;;;;;5033773;28;20385;-44
2024/02/17 04:43:40;;;;;;;2.53;1.88;;;22.50;99.90;;;;;;5033287;28;20017;-44
2024/02/17 04:46:06;;;;;;;3.90;1.98;;;22.40;99.90;;;;;;5031840;28;20026;-44
2024/02/17 04:48:31;;;;;;;4.32;2.10;;;22.40;99.90;;;;;;5033214;28;20486;-44
2024/02/17 04:50:58;;;;;;;2.35;1.60;;;22.40;99.90;;;;;;5032912;28;20053;-43
2024/02/17 04:53:24;;;;;;;3.45;1.80;;;22.40;99.90;;;;;;5033197;28;20033;-43
2024/02/17 04:55:50;;;;;;;4.22;2.00;;;22.40;99.90;;;;;;5031909;28;20024;-43
2024/02/17 04:58:17;;;;;;;4.25;2.20;;;22.50;99.90;;;;;;5032923;28;20017;-43
2024/02/17 05:00:46;;;;;;;;;;;22.40;99.90;;;;;;5032759;28;20083;-43
2024/02/17 05:03:13;;;;;;;3.35;2.15;;;22.40;99.90;;;;;;5033258;28;19960;-44
2024/02/17 05:05:39;;;;;;;4.70;1.88;;;22.40;99.90;;;;;;5032958;28;20466;-44
2024/02/17 05:08:05;;;;;;;4.13;1.83;;;22.40;99.90;;;;;;5032732;28;20095;-44
2024/02/17 05:10:31;;;;;;;3.53;2.08;;;22.40;99.90;;;;;;5033083;28;20040;-43
2024/02/17 05:12:57;;;;;;;2.95;2.00;;;22.30;99.90;;;;;;5032956;28;20017;-43
2024/02/17 05:15:22;;;;;;;3.70;1.92;;;22.30;99.90;;;;;;5031455;28;20501;-44
2024/02/17 05:17:48;;;;;;;3.55;2.00;;;22.30;99.90;;;;;;5031561;28;20389;-42
2024/02/17 05:20:14;;;;;;;3.55;1.98;;;22.30;99.90;;;;;;5031571;28;20028;-43
2024/02/17 05:22:42;;;;;;;3.38;1.88;;;22.30;99.90;;;;;;5032661;28;20022;-44
2024/02/17 05:25:08;;;;;;;3.35;2.13;;;22.30;99.90;;;;;;5032508;28;20430;-45
2024/02/17 05:27:34;;;;;;;3.63;1.70;;;22.30;99.90;;;;;;5031280;28;20067;-44
2024/02/17 05:29:59;;;;;;;3.58;2.05;;;22.30;99.90;;;;;;5032556;28;20073;-43
2024/02/17 05:32:27;;;;;;;2.28;1.80;;;22.30;99.90;;;;;;5032654;28;20021;-44
2024/02/17 05:34:52;;;;;;;2.95;1.65;;;22.30;99.90;;;;;;5032481;28;20025;-45
2024/02/17 05:37:18;;;;;;;3.90;1.70;;;22.30;99.90;;;;;;5031067;28;20044;-43
2024/02/17 05:39:46;;;;;;;3.10;1.85;;;22.30;99.90;;;;;;5032661;28;20040;-45
2024/02/17 05:42:12;;;;;;;2.75;1.73;;;22.30;99.90;;;;;;5032678;28;20493;-43
2024/02/17 05:44:38;;;;;;;4.75;2.03;;;22.30;99.90;;;;;;5030960;28;20492;-42
2024/02/17 05:47:04;;;;;;;4.28;1.60;;;22.30;99.90;;;;;;5032056;28;20486;-44
2024/02/17 05:49:29;;;;;;;3.25;1.80;;;22.20;99.90;;;;;;5031989;28;20029;-43
2024/02/17 05:51:56;;;;;;;3.13;1.98;;;22.20;99.90;;;;;;5032196;28;20022;-46
2024/02/17 05:54:22;;;;;;;2.42;1.60;;;22.20;99.90;;;;;;5032207;28;20120;-44
2024/02/17 05:56:51;;;;;;;3.13;1.75;;;22.20;99.90;;;;;;5031764;28;20021;-49
2024/02/17 05:59:16;;;;;;;2.85;1.50;;;22.20;99.90;;;;;;5032105;28;20058;-44
2024/02/17 06:01:43;;;;;;;3.80;2.28;;;22.20;99.90;;;;;;5020497;28;20046;-44
2024/02/17 06:04:09;;;;;;;2.92;1.75;;;22.20;99.90;;;;;;5022182;28;20056;-44
2024/02/17 06:06:35;;;;;;;3.05;1.77;;;22.20;99.90;;;;;;5030992;28;20678;-44
2024/02/17 06:09:01;;;;;;;1.98;1.40;;;22.20;99.90;;;;;;5031065;28;20367;-43
2024/02/17 06:11:27;;;;;;;5.20;1.58;;;22.20;99.90;;;;;;5031234;28;20052;-44
2024/02/17 06:13:53;;;;;;;2.72;1.73;;;22.20;99.90;;;;;;5031523;28;20029;-44
2024/02/17 06:16:19;;;;;;;2.67;1.70;;;22.20;99.90;;;;;;5030651;28;20390;-43
2024/02/17 06:21:30;;;;;;;2.28;1.70;;;22.20;99.90;;;;;;5031930;28;20083;-44
2024/02/17 06:23:57;;;;;;;5.05;1.90;;;22.20;99.90;;;;;;5030622;28;20021;-45
2024/02/17 06:26:31;;;;;;;4.32;2.25;;;22.10;99.90;;;;;;5047093;28;20020;-45
2024/02/17 06:28:59;;;;;;;3.30;1.92;;;22.10;99.90;;;;;;5031375;28;20543;-43
2024/02/17 06:31:25;;;;;;;5.10;1.85;;;22.10;99.90;;;;;;5031796;28;20034;-43
2024/02/17 06:33:52;;;;;;;11.90;1.75;;;22.10;99.90;;;;;;5031459;28;20033;-43
2024/02/17 06:36:19;;;;;;;3.75;1.85;;;22.10;99.90;;;;;;5031732;28;20026;-44
2024/02/17 06:38:45;;;;;;;2.95;1.90;;;22.10;99.90;;;;;;5031676;28;20040;-44
2024/02/17 06:41:11;;;;;;;2.53;1.75;;;22.10;99.90;;;;;;5031679;28;20160;-44
2024/02/17 06:43:38;;;;;;;2.53;1.58;;;22.10;99.90;;;;;;5029996;28;20025;-44
2024/02/17 06:46:06;;;;;;;2.70;1.80;;;22.10;99.90;;;;;;5031520;28;20018;-44
2024/02/17 06:48:33;;;;;;;2.78;1.83;;;22.10;99.90;;;;;;5031480;28;20021;-44
2024/02/17 06:50:59;;;;;;;3.38;1.80;;;22.10;99.90;;;;;;5031069;28;20025;-45
2024/02/17 06:53:24;;;;;;;4.57;2.25;;;22.10;99.90;;;;;;5031485;28;20026;-45
2024/02/17 06:55:50;;;;;;;4.35;1.90;;;22.10;99.90;;;;;;5031495;28;20065;-45
2024/02/17 06:58:16;;;;;;;2.55;1.60;;;22.00;99.90;;;;;;5031322;28;20022;-45
2024/02/17 07:00:42;;;;;;;2.13;1.60;;;22.10;99.90;;;;;;5031564;28;20029;-45
2024/02/17 07:03:07;;;;;;;3.67;1.98;;;22.00;99.90;;;;;;5031380;28;20060;-45
2024/02/17 07:05:38;;;;;;;2.50;1.65;;;22.00;99.90;;;;;;5031321;28;20380;-45
2024/02/17 07:08:04;;;;;;;4.93;2.05;;;22.00;99.90;;;;;;5031555;28;20690;-45
2024/02/17 07:10:30;;;;;;;2.55;1.50;;;22.00;99.90;;;;;;5033886;28;20393;-45
2024/02/17 07:12:56;;;;;;;4.30;2.10;;;22.00;99.90;;;;;;5001044;28;20029;-45
2024/02/17 07:15:22;;;;;;;2.97;1.70;;;22.00;99.90;;;;;;5035047;28;20424;-45
2024/02/17 07:17:48;;;;;;;3.30;1.80;;;22.00;99.90;;;;;;5035119;28;20043;-45
2024/02/17 07:20:14;;;;;;;4.10;2.10;;;22.00;99.90;;;;;;5035290;28;20043;-45
2024/02/17 07:22:39;;;;;;;2.95;2.22;;;22.00;99.90;;;;;;5034971;28;20093;-44
2024/02/17 07:25:06;;;;;;;3.60;2.22;;;22.00;99.90;;;;;;5033548;28;20053;-45
2024/02/17 07:27:31;;;;;;;2.13;1.75;;;22.00;99.90;;;;;;5033567;28;20048;-44
2024/02/17 07:29:57;;;;;;;3.80;2.20;;;22.00;99.90;;;;;;5034724;28;20485;-45
2024/02/17 07:32:24;;;;;;;3.33;2.22;;;22.00;99.90;;;;;;5034639;28;20022;-45
2024/02/17 07:34:53;;;;;;;3.20;1.98;;;22.00;99.90;;;;;;5034640;28;20037;-46
2024/02/17 07:37:19;;;;;;;3.38;1.70;;;22.00;99.90;;;;;;5034433;28;20022;-46
2024/02/17 07:39:46;;;;;;;2.75;2.17;;;22.00;99.90;;;;;;5034863;28;20029;-45
2024/02/17 07:42:11;;;;;;;3.00;1.70;;;22.00;99.90;;;;;;5033515;28;20032;-45
2024/02/17 07:44:40;;;;;;;3.78;1.77;;;22.00;99.90;;;;;;5034507;28;20029;-45
2024/02/17 07:47:06;;;;;;;3.03;2.13;;;22.00;99.90;;;;;;5034530;28;20635;-45
2024/02/17 07:49:32;;;;;;;5.10;2.33;;;22.00;99.90;;;;;;5032927;28;20112;-45
2024/02/17 07:51:58;;;;;;;3.15;2.30;;;22.00;99.90;;;;;;5034431;28;20021;-45
2024/02/17 07:54:24;;;;;;;3.55;2.03;;;22.00;99.90;;;;;;5034216;28;20021;-45
2024/02/17 07:56:50;;;;;;;3.58;1.80;;;22.10;99.90;;;;;;5034535;28;20029;-45
2024/02/17 07:59:16;;;;;;;3.40;1.90;;;22.10;99.90;;;;;;5034331;28;20441;-44
2024/02/17 08:01:42;;;;;;;3.67;1.98;;;22.10;99.90;;;;;;5034152;28;20044;-45
2024/02/17 08:04:08;;;;;;;2.63;1.90;;;22.10;99.90;;;;;;5034241;28;20032;-44
2024/02/17 08:06:33;;;;;;;2.97;1.92;;;22.10;99.90;;;;;;5034025;28;20021;-45
2024/02/17 08:08:59;;;;;;;2.45;1.80;;;22.10;99.90;;;;;;5033931;28;20029;-44
2024/02/17 08:11:25;;;;;;;2.05;1.80;;;22.10;99.90;;;;;;5033903;28;20108;-45
2024/02/17 08:13:51;;;;;;;2.53;1.92;;;22.10;99.90;;;;;;5033880;28;20531;-44
2024/02/17 08:16:16;;;;;;;2.83;1.77;;;22.10;99.90;;;;;;5034119;28;20501;-44
2024/02/17 08:18:43;;;;;;;2.45;1.75;;;22.20;99.90;;;;;;5016444;28;20496;-45
2024/02/17 08:21:09;;;;;;;2.30;1.67;;;22.10;99.90;;;;;;5033335;28;20028;-44
2024/02/17 08:23:35;;;;;;;4.00;2.22;;;22.20;99.90;;;;;;5033678;28;20107;-44
2024/02/17 08:26:01;;;;;;;3.28;1.88;;;22.20;99.90;;;;;;5033791;28;20032;-45
2024/02/17 08:28:28;;;;;;;2.75;2.00;;;22.20;99.90;;;;;;5033564;28;20029;-45
2024/02/17 08:30:54;;;;;;;2.50;1.77;;;22.20;99.90;;;;;;5033803;28;20021;-45
2024/02/17 08:33:20;;;;;;;2.42;1.73;;;22.20;99.90;;;;;;5033698;28;20032;-45
2024/02/17 08:35:45;;;;;;;3.47;2.00;;;22.20;99.90;;;;;;5033468;28;20374;-43
2024/02/17 08:38:12;;;;;;;2.95;1.80;;;22.20;99.90;;;;;;5033735;28;20481;-44
2024/02/17 08:40:38;;;;;;;3.17;1.73;;;22.20;99.90;;;;;;5033377;28;20120;-44
2024/02/17 08:43:07;;;;;;;2.50;1.70;;;22.20;99.90;;;;;;5033540;28;20060;-44
2024/02/17 08:45:33;;;;;;;4.30;2.05;;;22.20;99.90;;;;;;5033294;28;20029;-44
2024/02/17 08:47:59;;;;;;;3.08;2.10;;;22.20;99.90;;;;;;5033129;28;20557;-44
2024/02/17 08:50:24;;;;;;;3.53;1.98;;;22.30;99.90;;;;;;5033038;28;20136;-44
2024/02/17 08:52:50;;;;;;;3.72;2.10;;;22.30;99.90;;;;;;5032968;28;20032;-45
2024/02/17 08:55:16;;;;;;;3.92;1.80;;;22.30;99.90;;;;;;5031884;28;20481;-44
2024/02/17 08:57:42;;;;;;;2.97;2.05;;;22.30;99.90;;;;;;5033178;28;20034;-44
2024/02/17 09:00:09;;;;;;;5.72;2.22;;;22.30;99.90;;;;;;5033153;28;20504;-44
2024/02/17 09:02:35;;;;;;;3.97;1.93;;;22.30;99.90;;;;;;5033072;28;20589;-44
2024/02/17 09:05:06;;;;;;;3.63;2.13;;;22.30;99.90;;;;;;5032721;28;20266;-44
2024/02/17 09:07:32;;;;;;;4.15;2.47;;;22.30;99.90;;;;;;5033100;28;20032;-45
2024/02/17 09:09:58;;;;;;;2.97;2.30;;;22.30;99.90;;;;;;5032547;28;20044;-44
2024/02/17 09:12:25;;;;;;;4.00;2.00;;;22.40;99.90;;;;;;5015227;28;20060;-43
2024/02/17 09:14:51;;;;;;;4.75;2.17;;;22.40;99.90;;;;;;5032699;28;20473;-44
2024/02/17 09:17:17;;;;;;;2.80;1.85;;;22.40;99.90;;;;;;5032899;28;20026;-43
2024/02/17 09:19:44;;;;;;;2.95;1.77;;;22.40;99.90;;;;;;5032976;28;20029;-44
2024/02/17 09:22:12;;;;;;;3.55;2.17;;;22.40;99.90;;;;;;5032507;28;20040;-45
2024/02/17 09:24:38;;;;;;;5.05;1.88;;;22.40;99.90;;;;;;5032596;28;20104;-43
2024/02/17 09:27:04;;;;;;;3.97;2.47;;;22.40;99.90;;;;;;5032357;28;20545;-43
2024/02/17 09:29:32;;;;;;;4.63;2.05;;;22.50;99.90;;;;;;5032494;28;20071;-45
2024/02/17 09:31:58;;;;;;;2.88;1.92;;;22.50;99.90;;;;;;5030294;28;20025;-44
2024/02/17 09:34:26;;;;;;;4.63;1.98;;;22.50;99.90;;;;;;5032494;28;20433;-44
2024/02/17 09:36:52;;;;;;;3.67;2.08;;;22.50;99.90;;;;;;5031044;28;20021;-45
2024/02/17 09:39:18;;;;;;;3.22;1.70;;;22.60;99.90;;;;;;5031153;28;20519;-44
2024/02/17 09:41:43;;;;;;;2.30;1.60;;;22.60;99.90;;;;;;5032506;28;20025;-44
2024/02/17 09:44:10;;;;;;;4.57;2.13;;;22.60;99.90;;;;;;5032285;28;20022;-44
2024/02/17 09:46:36;;;;;;;7.67;2.40;;;22.60;99.90;;;;;;5032497;28;20049;-45
2024/02/17 09:49:04;;;;;;;2.80;2.10;;;22.60;99.90;;;;;;5031906;28;20065;-44
2024/02/17 09:51:31;;;;;;;3.92;2.38;;;22.70;99.90;;;;;;5032067;28;20021;-44
2024/02/17 09:53:57;;;;;;;3.13;1.90;;;22.70;99.90;;;;;;5030938;28;20461;-45
2024/02/17 09:56:27;;;;;;;3.55;1.55;;;22.70;99.90;;;;;;5031998;28;20017;-45
2024/02/17 09:58:53;;;;;;;4.50;2.40;;;22.70;99.90;;;;;;5032313;28;20025;-44
2024/02/17 10:01:26;;;;;;;4.75;2.25;;;22.70;99.90;;;;;;5031603;28;20140;-44
2024/02/17 10:03:53;;;;;;;3.45;2.05;;;22.80;99.90;;;;;;5032083;28;20370;-45
2024/02/17 10:06:19;;;;;;;4.75;2.20;;;22.80;99.90;;;;;;5031811;28;20029;-45
2024/02/17 10:08:46;;;;;;;5.68;2.53;;;22.80;99.90;;;;;;5030728;28;20025;-44
2024/02/17 10:11:12;;;;;;;6.87;2.60;;;22.90;99.90;;;;;;5030846;28;20100;-45
2024/02/17 10:13:40;;;;;;;5.10;2.17;;;22.90;99.90;;;;;;5031681;28;20026;-45
2024/02/17 10:16:14;;;;;;;3.83;2.08;;;22.90;99.90;;;;;;5031888;28;20506;-45
2024/02/17 10:18:47;;;;;;;4.97;2.65;;;23.00;99.90;;;;;;5031842;28;20018;-44
2024/02/17 10:21:13;;;;;;;6.30;2.10;;;23.00;99.90;;;;;;5032095;28;20497;-45
2024/02/17 10:23:39;;;;;;;9.70;2.33;;;23.10;99.90;;;;;;5031619;28;20025;-44
2024/02/17 10:26:06;;;;;;;3.60;2.63;;;23.10;99.90;;;;;;5031800;28;20569;-45
2024/02/17 10:28:32;;;;;;;7.97;2.35;;;23.10;99.90;;;;;;5031514;28;20014;-42
2024/02/17 10:31:01;;;;;;;5.93;2.67;;;23.20;99.90;;;;;;5031734;28;20014;-44
2024/02/17 10:33:27;;;;;;;4.43;2.33;;;23.20;99.90;;;;;;5030295;28;20017;-43
2024/02/17 10:35:56;;;;;;;5.40;2.25;;;23.20;99.90;;;;;;5031794;28;20363;-43
2024/02/17 10:38:24;;;;;;;5.35;2.20;;;23.30;99.90;;;;;;5031717;28;20022;-43
2024/02/17 10:40:52;;;;;;;9.38;2.35;;;23.30;99.90;;;;;;5030074;28;20021;-44
2024/02/17 10:43:18;;;;;;;9.65;2.00;;;23.40;99.90;;;;;;5031038;28;20030;-45
2024/02/17 10:45:44;;;;;;;6.43;2.40;;;23.40;99.90;;;;;;5034402;28;20028;-44
2024/02/17 10:48:10;;;;;;;5.57;2.80;;;23.40;99.90;;;;;;5034545;28;20105;-43
2024/02/17 10:50:41;;;;;;;2.75;1.52;;;23.50;99.90;;;;;;5035335;28;20048;-43
2024/02/17 10:53:47;;;;;;;3.38;1.80;;;23.50;99.90;;;;;;5034154;28;20092;-45
2024/02/17 10:56:17;;;;;;;2.33;1.70;;;23.50;99.90;;;;;;5034181;28;20120;-44
2024/02/17 10:58:45;;;;;;;8.00;2.30;;;23.60;99.90;;;;;;5035548;28;20026;-45
2024/02/17 11:01:14;;;;;;;3.08;1.90;;;23.60;99.90;;;;;;5035275;28;20057;-44
2024/02/17 11:03:42;;;;;;;7.18;2.13;;;23.60;99.90;;;;;;5035471;28;20466;-44
2024/02/17 11:06:15;;;;;;;5.80;2.13;;;23.70;99.90;;;;;;5035163;28;20104;-44
2024/02/17 11:08:41;;;;;;;5.68;2.40;;;23.70;99.90;;;;;;5022167;28;20025;-45
2024/02/17 11:11:26;;;;;;;9.38;3.15;;;23.70;99.90;;;;;;5034041;28;20028;-44
2024/02/17 11:13:53;;;;;;;8.23;2.38;;;23.70;99.90;;;;;;5022659;28;20014;-44
2024/02/17 11:16:19;;;;;;;4.40;2.47;;;23.80;99.90;;;;;;5035123;28;20022;-45
2024/02/17 11:18:51;;;;;;;5.38;2.28;;;23.80;99.90;;;;;;5034881;28;20025;-44
2024/02/17 11:21:25;;;;;;;4.60;2.35;;;23.80;99.90;;;;;;5034977;28;20051;-44
2024/02/17 11:23:50;;;;;;;6.78;2.50;;;23.80;99.90;;;;;;5034885;28;20024;-45
2024/02/17 11:26:18;;;;;;;7.97;3.10;;;23.80;99.90;;;;;;5034841;28;20477;-45
2024/02/17 11:28:46;;;;;;;5.80;2.75;;;23.80;99.90;;;;;;5034848;28;20481;-44
2024/02/17 11:31:12;;;;;;;8.38;3.75;;;23.90;99.90;;;;;;5033517;28;20112;-43
2024/02/17 11:33:41;;;;;;;8.32;2.97;;;23.90;99.90;;;;;;5034564;28;20140;-44
2024/02/17 11:36:09;;;;;;;9.25;2.92;;;23.90;99.90;;;;;;5034600;28;20104;-43
2024/02/17 11:38:36;;;;;;;11.13;3.67;;;24.00;99.90;;;;;;5034509;28;20490;-43
2024/02/17 11:41:03;;;;;;;5.70;2.80;;;24.00;99.90;;;;;;5034637;28;20461;-43
2024/02/17 11:43:33;;;;;;;7.93;3.20;;;24.00;99.90;;;;;;5034597;28;20290;-44
2024/02/17 11:46:01;;;;;;;10.48;3.65;;;24.00;99.90;;;;;;5034302;28;20120;-43
2024/02/17 11:48:32;;;;;;;13.63;3.40;;;24.10;99.90;;;;;;5033247;28;20017;-43
2024/02/17 11:51:13;;;;;;;10.82;2.75;;;24.10;99.90;;;;;;5034102;28;20112;-44
2024/02/17 11:53:44;;;;;;;6.80;3.50;;;24.10;99.90;;;;;;5034229;28;20021;-43
2024/02/17 11:56:11;;;;;;;7.15;2.83;;;24.20;99.90;;;;;;5031600;28;20539;-43
2024/02/17 11:58:38;;;;;;;8.27;3.50;;;24.20;99.90;;;;;;5034250;28;20109;-44
2024/02/17 12:01:04;;;;;;;6.38;2.78;;;24.20;99.90;;;;;;5034097;28;20536;-44
2024/02/17 12:03:31;;;;;;;7.13;3.70;;;24.20;99.90;;;;;;5033971;28;20056;-44
2024/02/17 12:06:00;;;;;;;7.53;2.90;;;24.20;99.90;;;;;;5034176;28;20032;-44
2024/02/17 12:08:30;;;;;;;5.57;3.03;;;24.30;99.90;;;;;;5033977;28;20263;-44
2024/02/17 12:10:57;;;;;;;8.70;2.95;;;24.30;99.90;;;;;;5032634;28;20128;-44
2024/02/17 12:13:23;;;;;;;5.13;2.42;;;24.30;99.90;;;;;;5034064;28;20049;-44
2024/02/17 12:15:50;;;;;;;10.18;3.28;;;24.40;99.90;;;;;;5033771;28;20041;-45
2024/02/17 12:18:19;;;;;;;8.02;3.17;;;24.40;99.90;;;;;;5033822;28;20026;-44
2024/02/17 12:20:45;;;;;;;7.22;2.88;;;24.40;99.90;;;;;;5034137;28;20025;-44
2024/02/17 12:23:11;;;;;;;10.10;3.10;;;24.40;99.90;;;;;;5034013;28;20029;-44
2024/02/17 12:25:38;;;;;;;10.03;3.03;;;24.50;99.90;;;;;;5033970;28;20385;-43
2024/02/17 12:28:08;;;;;;;8.15;3.25;;;24.50;99.90;;;;;;5033748;28;20535;-43
2024/02/17 12:30:46;;;;;;;6.32;2.55;;;24.50;99.90;;;;;;5032194;28;20482;-42
2024/02/17 12:33:13;;;;;;;10.23;3.80;;;24.50;99.90;;;;;;5033870;28;20100;-42
2024/02/17 12:35:52;;;;;;;3.60;2.22;;;24.60;99.90;;;;;;5033407;28;20025;-41
2024/02/17 12:38:20;;;;;;;4.45;2.05;;;24.60;99.90;;;;;;5033463;28;20025;-42
2024/02/17 12:40:46;;;;;;;;;;;24.60;99.90;;;;;;5033745;28;20044;-42
2024/02/17 12:43:24;;;;;;;5.97;1.67;;;24.70;99.90;;;;;;5033750;28;19905;-43
2024/02/17 12:45:50;;;;;;;4.65;1.73;;;24.70;99.90;;;;;;5033389;28;20017;-42
2024/02/17 12:48:17;;;;;;;5.03;1.75;;;24.70;99.90;;;;;;5033257;28;20057;-42